Time;durP1;ratioP1;P1;durP2;ratioP2;P2;SDS_P1;SDS_P2;PMS_P1;PMS_P2;Temp;Humidity;BMP_temperature;BMP_pressure;BME280_temperature;BME280_humidity;BME280_pressure;Samples;Min_cycle;Max_cycle;Signal;HPM_P1;HPM_P2
2022/07/28 00:01:48;;;;;;;;;2.67;2.33;;;;;22.76;38.62;101355.03;5029893;28;45304;-68
2022/07/28 00:04:13;;;;;;;;;3.00;3.00;;;;;22.79;38.25;101357.38;5019768;28;45470;-68
2022/07/28 00:06:39;;;;;;;;;2.67;2.67;;;;;22.80;37.92;101351.59;5015790;28;45510;-68
2022/07/28 00:09:04;;;;;;;;;2.00;2.00;;;;;22.73;38.57;101342.44;5018791;28;47086;-67
2022/07/28 00:11:29;;;;;;;;;3.33;3.33;;;;;22.75;38.86;101340.34;5011745;28;45400;-68
2022/07/28 00:13:55;;;;;;;;;2.00;2.00;;;;;22.78;38.36;101347.38;5019141;28;45618;-68
2022/07/28 00:16:20;;;;;;;;;3.67;3.00;;;;;22.71;38.59;101350.13;5019572;28;45307;-68
2022/07/28 00:18:46;;;;;;;;;2.00;2.00;;;;;22.67;38.73;101354.34;5022252;28;45415;-70
2022/07/28 00:21:11;;;;;;;;;2.00;2.00;;;;;22.71;38.94;101349.25;5015908;28;45567;-69
2022/07/28 00:23:36;;;;;;;;;1.67;1.67;;;;;22.70;39.14;101342.88;5017554;28;45382;-68
2022/07/28 00:26:02;;;;;;;;;1.33;1.00;;;;;22.70;38.98;101342.00;5020699;28;45458;-68
2022/07/28 00:28:27;;;;;;;;;3.00;3.00;;;;;22.72;39.07;101340.72;5021043;28;45477;-68
2022/07/28 00:30:54;;;;;;;;;2.00;2.00;;;;;22.73;38.93;101327.72;5019830;28;45477;-68
2022/07/28 00:33:20;;;;;;;;;3.00;3.00;;;;;22.69;38.59;101334.75;5022527;28;45386;-68
2022/07/28 00:35:45;;;;;;;;;3.67;2.67;;;;;22.65;38.94;101327.94;5022338;28;45430;-68
2022/07/28 00:38:10;;;;;;;;;3.00;3.00;;;;;22.45;39.15;101327.94;5030837;28;47261;-67
2022/07/28 00:43:20;;;;;;;;;3.00;3.00;;;;;22.48;39.27;101311.75;5023355;28;45411;-68
2022/07/28 00:45:46;;;;;;;;;2.00;2.00;;;;;22.48;39.06;101320.06;5019164;28;45446;-68
2022/07/28 00:48:11;;;;;;;;;4.00;4.00;;;;;22.47;39.48;101315.59;5025524;28;46473;-68
2022/07/28 00:50:38;;;;;;;;;3.00;3.00;;;;;22.43;39.67;101305.97;5016327;28;45471;-68
2022/07/28 00:53:05;;;;;;;;;2.00;2.00;;;;;22.42;39.82;101307.06;5020985;28;45395;-68
2022/07/28 00:55:31;;;;;;;;;3.00;3.00;;;;;22.45;39.71;101314.09;5012904;28;45504;-68
2022/07/28 00:57:57;;;;;;;;;3.67;3.67;;;;;22.31;40.18;101301.31;5024944;28;45276;-67
2022/07/28 01:00:22;;;;;;;;;5.00;3.67;;;;;22.32;40.05;101301.09;5018701;28;45459;-67
2022/07/28 01:02:48;;;;;;;;;5.00;4.00;;;;;22.32;40.27;101292.78;5028504;28;45474;-68
2022/07/28 01:05:14;;;;;;;;;5.00;3.67;;;;;22.31;40.75;101306.84;5020102;28;45418;-68
2022/07/28 01:07:53;;;;;;;;;4.33;4.33;;;;;22.26;39.78;101295.56;5016844;28;46617;-68
2022/07/28 01:10:48;;;;;;;;;4.00;4.00;;;;;22.32;39.81;101305.78;5033955;28;46193;-67
2022/07/28 01:13:45;;;;;;;;;7.33;4.67;;;;;22.38;39.91;101299.38;5011294;28;45399;-68
2022/07/28 01:16:10;;;;;;;;;5.33;4.00;;;;;22.31;40.24;101293.84;5023345;28;45612;-68
2022/07/28 01:18:52;;;;;;;;;7.00;4.00;;;;;22.29;39.87;101293.22;5023082;28;46279;-68
2022/07/28 01:21:24;;;;;;;;;4.00;4.00;;;;;22.25;39.61;101288.31;5035707;28;45177;-68
2022/07/28 01:24:06;;;;;;;;;5.00;3.00;;;;;22.18;40.78;101282.78;5022210;28;45409;-68
2022/07/28 01:26:58;;;;;;;;;4.33;4.00;;;;;22.15;39.92;101285.94;5022797;28;45525;-68
2022/07/28 01:29:33;;;;;;;;;6.00;4.67;;;;;22.15;39.94;101283.19;5005377;28;45578;-68
2022/07/28 01:32:05;;;;;;;;;5.00;4.00;;;;;22.08;40.25;101283.19;5022320;28;45505;-67
2022/07/28 01:34:36;;;;;;;;;2.67;2.67;;;;;21.99;40.64;101287.19;5024177;28;45299;-68
2022/07/28 01:37:09;;;;;;;;;1.00;1.00;;;;;21.98;40.37;101285.53;5023301;28;45423;-68
2022/07/28 01:39:38;;;;;;;;;4.00;4.00;;;;;21.96;41.20;101282.09;5008962;28;45547;-68
2022/07/28 01:42:06;;;;;;;;;4.00;4.00;;;;;21.94;40.97;101280.56;5020075;28;45419;-68
2022/07/28 01:44:36;;;;;;;;;4.33;3.33;;;;;21.99;40.73;101283.63;5022167;28;45470;-67
2022/07/28 01:47:06;;;;;;;;;1.67;1.67;;;;;21.96;41.20;101281.22;5033055;28;45515;-68
2022/07/28 01:49:34;;;;;;;;;2.00;2.00;;;;;21.90;40.47;101259.94;5020667;28;46727;-67
2022/07/28 01:52:04;;;;;;;;;2.00;2.00;;;;;21.97;41.31;101274.66;5019397;28;45240;-68
2022/07/28 01:54:31;;;;;;;;;3.00;3.00;;;;;22.00;41.11;101271.47;5024371;28;45279;-68
2022/07/28 01:56:59;;;;;;;;;3.33;3.33;;;;;22.02;41.09;101269.34;5019932;28;45504;-68
2022/07/28 01:59:28;;;;;;;;;2.33;2.33;;;;;21.99;41.01;101270.59;5021548;28;46064;-68
2022/07/28 02:01:55;;;;;;;;;0.67;0.67;;;;;22.02;41.32;101270.19;5015961;28;45509;-68
2022/07/28 02:04:24;;;;;;;;;2.33;2.33;;;;;22.09;40.88;101272.97;5023454;28;45343;-67
2022/07/28 02:06:52;;;;;;;;;2.00;2.00;;;;;22.01;41.27;101270.41;5018909;28;45526;-68
2022/07/28 02:09:21;;;;;;;;;2.00;2.00;;;;;21.98;41.63;101270.84;5011702;28;45456;-68
2022/07/28 02:11:50;;;;;;;;;3.33;3.33;;;;;22.11;41.00;101270.84;5013399;28;45423;-68
2022/07/28 02:14:19;;;;;;;;;2.00;2.00;;;;;22.10;40.96;101263.59;5023975;28;45402;-68
2022/07/28 02:16:50;;;;;;;;;1.33;1.33;;;;;22.15;41.48;101261.03;5020460;28;45394;-68
2022/07/28 02:19:18;;;;;;;;;3.00;3.00;;;;;22.22;41.01;101272.97;5019266;28;47137;-68
2022/07/28 02:21:46;;;;;;;;;1.67;1.67;;;;;22.19;40.70;101261.50;5017702;28;45375;-68
2022/07/28 02:24:12;;;;;;;;;3.67;2.67;;;;;22.08;41.01;101261.03;5024288;28;45326;-68
2022/07/28 02:26:49;;;;;;;;;3.67;3.67;;;;;22.09;41.59;101259.97;5021280;28;45244;-68
2022/07/28 02:29:17;;;;;;;;;4.00;3.00;;;;;22.06;41.50;101262.34;5039067;28;47245;-68
2022/07/28 02:31:50;;;;;;;;;2.00;2.00;;;;;22.11;41.28;101254.25;5021303;28;45311;-68
2022/07/28 02:34:18;;;;;;;;;2.00;2.00;;;;;22.17;41.99;101249.78;5022669;28;45367;-68
2022/07/28 02:36:58;;;;;;;;;3.00;3.00;;;;;22.18;41.59;101254.25;5020215;28;45462;-68
2022/07/28 02:39:35;;;;;;;;;3.33;3.00;;;;;22.12;42.05;101242.13;5021314;28;47233;-66
2022/07/28 02:42:06;;;;;;;;;2.33;2.33;;;;;22.00;41.50;101243.78;5017654;28;45319;-66
2022/07/28 02:44:38;;;;;;;;;3.00;3.00;;;;;22.10;41.57;101238.69;5008267;28;45260;-66
2022/07/28 02:47:07;;;;;;;;;3.00;2.00;;;;;22.14;41.72;101234.44;5021655;28;45448;-66
2022/07/28 02:49:35;;;;;;;;;2.67;2.67;;;;;22.22;41.57;101244.44;5017478;28;45240;-66
2022/07/28 02:52:02;;;;;;;;;2.67;2.67;;;;;22.25;41.18;101239.34;5014449;28;45352;-66
2022/07/28 02:54:29;;;;;;;;;3.00;3.00;;;;;22.29;40.78;101239.75;5022104;28;45384;-67
2022/07/28 02:56:58;;;;;;;;;3.00;3.00;;;;;22.27;40.48;101237.22;5016806;28;45584;-67
2022/07/28 02:59:26;;;;;;;;;2.00;2.00;;;;;22.30;40.45;101234.00;5022586;28;46436;-67
2022/07/28 03:01:52;;;;;;;;;1.67;1.67;;;;;22.33;40.77;101246.59;5019407;28;46466;-67
2022/07/28 03:04:55;;;;;;;;;4.33;2.67;;;;;22.29;41.03;101235.06;5023470;28;45390;-67
2022/07/28 03:07:06;;;;;;;;;2.00;2.00;;;;;22.26;40.70;101237.44;5019323;28;45252;-67
2022/07/28 03:09:39;;;;;;;;;5.00;3.00;;;;;22.19;40.30;101245.75;5021564;28;45569;-67
2022/07/28 03:12:04;;;;;;;;;2.00;2.00;;;;;22.12;40.83;101239.34;5033120;28;45385;-67
2022/07/28 03:14:30;;;;;;;;;3.00;3.00;;;;;22.08;41.24;101243.59;5021739;28;45339;-67
2022/07/28 03:16:55;;;;;;;;;2.33;2.33;;;;;22.03;41.01;101235.06;5029985;28;45301;-67
2022/07/28 03:19:20;;;;;;;;;2.00;2.00;;;;;22.09;41.44;101246.16;5021576;28;46199;-69
2022/07/28 03:21:48;;;;;;;;;1.67;1.67;;;;;22.09;41.78;101245.28;5016216;28;45534;-67
2022/07/28 03:24:16;;;;;;;;;2.67;2.67;;;;;21.99;41.49;101242.09;5023745;28;45241;-67
2022/07/28 03:26:48;;;;;;;;;3.00;3.00;;;;;21.94;41.71;101244.59;5019706;28;45331;-67
2022/07/28 03:29:16;;;;;;;;;2.67;2.67;;;;;21.87;41.88;101246.50;5022930;28;45355;-67
2022/07/28 03:31:46;;;;;;;;;5.00;5.00;;;;;21.83;42.70;101246.09;5019558;28;45380;-67
2022/07/28 03:34:13;;;;;;;;;2.67;2.67;;;;;21.95;42.48;101252.69;5023064;28;45410;-67
2022/07/28 03:36:43;;;;;;;;;5.00;4.67;;;;;21.77;42.92;101242.22;5033101;28;45458;-67
2022/07/28 03:39:10;;;;;;;;;7.00;4.00;;;;;21.70;42.62;101233.06;5022671;28;45565;-67
2022/07/28 03:41:38;;;;;;;;;3.00;3.00;;;;;21.63;42.74;101237.72;5014631;28;45432;-67
2022/07/28 03:44:04;;;;;;;;;7.33;5.67;;;;;21.58;43.27;101243.03;5022803;28;45157;-67
2022/07/28 03:46:30;;;;;;;;;3.00;3.00;;;;;21.55;43.00;101237.91;5017274;28;45510;-67
2022/07/28 03:48:55;;;;;;;;;4.33;3.00;;;;;21.70;43.02;101232.22;5021377;28;47319;-67
2022/07/28 03:51:21;;;;;;;;;4.00;3.00;;;;;21.72;43.06;101228.19;5016282;28;45531;-67
2022/07/28 03:53:47;;;;;;;;;6.00;4.67;;;;;21.83;42.10;101228.63;5009114;28;45354;-67
2022/07/28 03:56:12;;;;;;;;;2.67;2.67;;;;;21.88;42.19;101229.72;5015407;28;45478;-67
2022/07/28 03:58:38;;;;;;;;;3.00;3.00;;;;;21.96;42.04;101234.19;5021268;28;45507;-66
2022/07/28 04:01:03;;;;;;;;;50.75;43.00;;;;;21.98;41.80;101234.88;5013517;28;45363;-67
2022/07/28 04:03:29;;;;;;;;;3.00;3.00;;;;;22.00;41.74;101227.19;5019391;28;45363;-67
2022/07/28 04:05:55;;;;;;;;;4.33;4.00;;;;;22.02;41.25;101245.28;5012138;28;45490;-67
2022/07/28 04:08:20;;;;;;;;;5.00;4.00;;;;;22.06;41.74;101245.72;5022590;28;45426;-67
2022/07/28 04:10:45;;;;;;;;;4.00;3.67;;;;;21.98;41.73;101237.63;5016100;28;45289;-67
2022/07/28 04:13:11;;;;;;;;;7.00;4.67;;;;;21.99;41.97;101242.09;5018953;28;45423;-67
2022/07/28 04:15:37;;;;;;;;;3.33;3.33;;;;;22.03;41.69;101235.94;5020076;28;45177;-68
2022/07/28 04:18:03;;;;;;;;;6.00;4.00;;;;;22.03;41.65;101232.31;5018226;28;46762;-67
2022/07/28 04:20:28;;;;;;;;;3.67;3.67;;;;;21.94;41.75;101234.38;5020107;28;45390;-68
2022/07/28 04:22:54;;;;;;;;;6.00;3.67;;;;;21.99;42.30;101240.16;5016615;28;45243;-67
2022/07/28 04:25:22;;;;;;;;;4.00;4.00;;;;;21.99;41.64;101240.16;5022437;28;45493;-67
2022/07/28 04:27:48;;;;;;;;;4.00;4.00;;;;;21.94;42.12;101236.31;5018428;28;45428;-67
2022/07/28 04:30:16;;;;;;;;;5.33;5.33;;;;;21.98;41.72;101237.63;5023130;28;45547;-67
2022/07/28 04:32:48;;;;;;;;;5.00;3.67;;;;;21.99;41.59;101234.63;5016198;28;45351;-67
2022/07/28 04:35:15;;;;;;;;;5.00;3.33;;;;;22.01;41.79;101228.88;5022186;28;45410;-67
2022/07/28 04:37:41;;;;;;;;;4.00;4.00;;;;;21.98;42.51;101234.88;5025366;28;45465;-67
2022/07/28 04:40:09;;;;;;;;;5.00;4.33;;;;;21.93;42.63;101227.16;5022828;28;45467;-67
2022/07/28 04:42:35;;;;;;;;;5.67;4.00;;;;;21.91;42.39;101226.53;5022472;28;45346;-67
2022/07/28 04:45:01;;;;;;;;;5.67;5.33;;;;;21.93;42.47;101218.00;5021693;28;45398;-68
2022/07/28 04:47:28;;;;;;;;;4.67;4.33;;;;;21.87;42.90;101218.84;5022237;28;45425;-66
2022/07/28 04:49:54;;;;;;;;;3.00;3.00;;;;;21.59;43.64;101228.16;5021933;28;45370;-66
2022/07/28 04:52:20;;;;;;;;;3.67;3.67;;;;;21.39;44.16;101227.25;5029118;28;45372;-69
2022/07/28 04:54:46;;;;;;;;;5.33;4.00;;;;;21.24;44.46;101219.13;5021233;28;45609;-66
2022/07/28 04:57:11;;;;;;;;;6.33;4.33;;;;;21.39;44.03;101227.25;5015461;28;45382;-67
2022/07/28 04:59:37;;;;;;;;;4.33;3.00;;;;;21.38;44.18;101225.56;5017387;28;45263;-67
2022/07/28 05:02:03;;;;;;;;;3.67;3.67;;;;;21.55;43.87;101231.56;5022989;28;45270;-67
2022/07/28 05:04:29;;;;;;;;;3.67;3.67;;;;;21.50;44.28;101226.63;5017406;28;45291;-66
2022/07/28 05:06:54;;;;;;;;;3.67;2.67;;;;;21.45;43.97;101225.56;5023577;28;45684;-67
2022/07/28 05:09:20;;;;;;;;;4.67;3.00;;;;;21.59;43.46;101211.56;5009729;28;45401;-67
2022/07/28 05:11:45;;;;;;;;;5.33;3.67;;;;;21.77;43.61;101229.50;5021323;28;45373;-67
2022/07/28 05:14:11;;;;;;;;;3.67;3.67;;;;;21.83;42.70;101223.09;5022935;28;45725;-67
2022/07/28 05:16:36;;;;;;;;;5.00;5.00;;;;;21.89;43.25;101233.31;5017244;28;46542;-67
2022/07/28 05:19:02;;;;;;;;;5.67;3.67;;;;;21.88;42.57;101226.94;5020844;28;45406;-69
2022/07/28 05:21:27;;;;;;;;;3.67;3.67;;;;;21.87;42.64;101227.16;5023146;28;45438;-67
2022/07/28 05:23:52;;;;;;;;;4.33;4.33;;;;;21.96;43.27;101232.31;5022761;28;45397;-70
2022/07/28 05:26:18;;;;;;;;;5.67;3.00;;;;;22.02;42.87;101228.69;5022654;28;46929;-67
2022/07/28 05:28:43;;;;;;;;;6.00;4.67;;;;;22.06;42.28;101229.94;5023798;28;45473;-67
2022/07/28 05:31:09;;;;;;;;;6.33;4.67;;;;;22.12;42.38;101233.81;5021537;28;45421;-67
2022/07/28 05:33:34;;;;;;;;;6.00;5.00;;;;;22.16;42.71;101228.69;5023360;28;45367;-68
2022/07/28 05:36:00;;;;;;;;;7.67;4.67;;;;;22.21;42.47;101226.16;5013090;28;47827;-68
2022/07/28 05:38:27;;;;;;;;;8.00;4.67;;;;;22.32;42.49;101229.13;5022375;28;45269;-68
2022/07/28 05:40:52;;;;;;;;;5.00;5.00;;;;;22.38;41.79;101227.41;5017928;28;45414;-68
2022/07/28 05:43:19;;;;;;;;;8.00;5.00;;;;;22.04;43.21;101228.47;5022097;28;45400;-67
2022/07/28 05:45:45;;;;;;;;;9.00;6.00;;;;;21.92;43.31;101227.34;5027986;28;46277;-67
2022/07/28 05:48:11;;;;;;;;;5.67;4.33;;;;;21.85;43.04;101232.03;5024156;28;45471;-67
2022/07/28 05:50:36;;;;;;;;;4.67;4.67;;;;;21.95;43.22;101225.03;5016370;28;45363;-68
2022/07/28 05:53:02;;;;;;;;;2.00;2.00;;;;;21.75;43.42;101224.16;5023554;28;45473;-68
2022/07/28 05:55:27;;;;;;;;;11.00;9.00;;;;;21.82;43.31;101221.41;5016693;28;45447;-68
2022/07/28 05:57:53;;;;;;;;;6.67;6.67;;;;;22.01;43.17;101220.59;5018759;28;45389;-68
2022/07/28 06:00:20;;;;;;;;;6.67;6.67;;;;;22.01;42.81;101221.44;5020444;28;45915;-68
2022/07/28 06:02:49;;;;;;;;;5.33;5.33;;;;;22.16;43.14;101223.16;5015769;28;45625;-68
2022/07/28 06:05:16;;;;;;;;;7.67;7.67;;;;;22.12;42.59;101214.44;5018101;28;45463;-67
2022/07/28 06:07:45;;;;;;;;;6.00;5.00;;;;;22.33;42.93;101224.44;5017296;28;45284;-67
2022/07/28 06:10:12;;;;;;;;;4.00;4.00;;;;;22.14;43.16;101226.13;5017208;28;45309;-67
2022/07/28 06:12:45;;;;;;;;;7.00;6.00;;;;;22.24;42.88;101221.03;5017211;28;45545;-66
2022/07/28 06:15:13;;;;;;;;;5.00;5.00;;;;;22.38;42.53;101228.25;5018541;28;46446;-68
2022/07/28 06:17:38;;;;;;;;;5.00;5.00;;;;;22.55;42.04;101227.81;5016376;28;45763;-67
2022/07/28 06:20:04;;;;;;;;;4.67;3.67;;;;;22.42;42.25;101229.56;5016391;28;45438;-68
2022/07/28 06:22:43;;;;;;;;;5.67;5.00;;;;;22.32;42.29;101236.56;5005673;28;45489;-68
2022/07/28 06:25:14;;;;;;;;;5.33;5.00;;;;;22.30;43.20;101231.25;5018847;28;46459;-67
2022/07/28 06:27:39;;;;;;;;;4.00;4.00;;;;;22.36;42.95;101233.16;5029760;28;45398;-68
2022/07/28 06:30:05;;;;;;;;;13.00;7.00;;;;;22.42;42.88;101234.25;5019269;28;46841;-67
2022/07/28 06:32:31;;;;;;;;;4.00;4.00;;;;;22.71;42.15;101231.00;5019598;28;45300;-67
2022/07/28 06:34:56;;;;;;;;;4.00;4.00;;;;;23.05;41.53;101231.78;5018083;28;46747;-67
2022/07/28 06:37:21;;;;;;;;;7.00;7.00;;;;;23.31;40.87;101234.44;5021493;28;45402;-67
2022/07/28 06:39:47;;;;;;;;;5.67;5.00;;;;;23.48;40.41;101232.03;5027192;28;45347;-67
2022/07/28 06:42:12;;;;;;;;;9.00;5.00;;;;;23.75;40.23;101233.59;5019103;28;45324;-67
2022/07/28 06:44:37;;;;;;;;;5.00;3.67;;;;;23.85;39.70;101220.09;5021472;28;45517;-67
2022/07/28 06:47:02;;;;;;;;;5.33;4.00;;;;;24.04;39.40;101230.19;5016529;28;45455;-67
2022/07/28 06:49:28;;;;;;;;;7.00;6.00;;;;;24.21;38.67;101230.50;5020677;28;45336;-67
2022/07/28 06:51:53;;;;;;;;;4.00;4.00;;;;;24.11;38.69;101223.75;5017562;28;45280;-67
2022/07/28 06:54:18;;;;;;;;;5.00;5.00;;;;;24.00;38.93;101228.09;5021743;28;46209;-67
2022/07/28 06:56:44;;;;;;;;;2.67;2.67;;;;;24.17;38.48;101231.16;5012836;28;45473;-67
2022/07/28 06:59:09;;;;;;;;;4.33;2.67;;;;;24.30;38.24;101240.28;5023063;28;45414;-67
2022/07/28 07:01:35;;;;;;;;;6.00;4.67;;;;;24.37;38.18;101240.22;5012921;28;45416;-67
2022/07/28 07:04:00;;;;;;;;;6.33;3.00;;;;;24.33;38.00;101244.50;5018616;28;46963;-68
2022/07/28 07:06:26;;;;;;;;;7.00;6.00;;;;;24.34;38.12;101235.09;5007109;28;45396;-69
2022/07/28 07:08:51;;;;;;;;;6.33;5.00;;;;;24.65;37.65;101231.38;5022380;28;45215;-69
2022/07/28 07:11:16;;;;;;;;;6.00;5.00;;;;;24.95;37.25;101234.31;5016574;28;45445;-69
2022/07/28 07:13:42;;;;;;;;;5.67;4.00;;;;;25.06;37.26;101228.81;5016785;28;45229;-67
2022/07/28 07:16:07;;;;;;;;;4.00;4.00;;;;;25.21;36.48;101225.63;5015247;28;45355;-67
2022/07/28 07:18:32;;;;;;;;;5.00;5.00;;;;;25.28;36.66;101225.59;5021804;28;45418;-68
2022/07/28 07:20:58;;;;;;;;;7.33;4.00;;;;;25.26;36.57;101230.53;5016177;28;45311;-67
2022/07/28 07:23:23;;;;;;;;;4.67;3.33;;;;;25.36;36.28;101228.88;5017545;28;46590;-66
2022/07/28 07:25:49;;;;;;;;;7.33;5.00;;;;;25.47;36.08;101241.16;5013876;28;45282;-68
2022/07/28 07:28:14;;;;;;;;;4.33;4.33;;;;;25.13;36.54;101237.94;5022434;28;45416;-68
2022/07/28 07:30:39;;;;;;;;;7.67;5.00;;;;;25.33;36.26;101234.91;5016690;28;45432;-67
2022/07/28 07:33:05;;;;;;;;;4.67;4.00;;;;;25.63;36.22;101242.47;5018808;28;45434;-67
2022/07/28 07:35:30;;;;;;;;;7.67;4.67;;;;;25.81;35.84;101225.72;5021082;28;45505;-67
2022/07/28 07:37:56;;;;;;;;;3.33;3.33;;;;;25.88;35.79;101240.38;5022405;28;45528;-67
2022/07/28 07:40:21;;;;;;;;;5.00;5.00;;;;;25.72;35.27;101243.81;5019357;28;45492;-68
2022/07/28 07:42:46;;;;;;;;;8.00;6.67;;;;;25.01;36.65;101245.34;5019714;28;45405;-67
2022/07/28 07:45:12;;;;;;;;;6.67;5.33;;;;;25.26;36.71;101231.38;5017327;28;45397;-69
2022/07/28 07:47:37;;;;;;;;;7.00;7.00;;;;;25.40;36.35;101230.13;5015591;28;45294;-68
2022/07/28 07:50:03;;;;;;;;;4.67;4.67;;;;;25.68;36.13;101226.75;5019030;28;45358;-67
2022/07/28 07:52:28;;;;;;;;;7.67;5.00;;;;;25.97;35.60;101228.66;5016387;28;46850;-67
2022/07/28 07:54:53;;;;;;;;;8.33;6.00;;;;;26.01;35.97;101222.63;5020666;28;45393;-67
2022/07/28 07:57:19;;;;;;;;;5.00;5.00;;;;;25.88;35.56;101223.66;5024845;28;45461;-68
2022/07/28 07:59:44;;;;;;;;;9.33;6.00;;;;;25.92;35.33;101220.19;5019021;28;45532;-68
2022/07/28 08:02:09;;;;;;;;;6.00;4.33;;;;;26.07;35.10;101236.44;5014066;28;45341;-68
2022/07/28 08:04:35;;;;;;;;;6.00;5.00;;;;;26.46;34.44;101220.16;5016229;28;45466;-67
2022/07/28 08:07:00;;;;;;;;;10.33;10.33;;;;;26.68;34.07;101226.84;5030494;28;45278;-67
2022/07/28 08:09:25;;;;;;;;;7.33;6.33;;;;;26.68;34.12;101235.19;5009671;28;45420;-67
2022/07/28 08:11:51;;;;;;;;;6.33;5.00;;;;;26.81;34.18;101221.03;5017470;28;45347;-67
2022/07/28 08:14:16;;;;;;;;;4.00;4.00;;;;;26.95;33.95;101216.91;5013720;28;45371;-67
2022/07/28 08:16:42;;;;;;;;;10.00;7.67;;;;;26.68;34.31;101210.97;5016033;28;45303;-66
2022/07/28 08:19:07;;;;;;;;;6.00;5.67;;;;;26.26;34.88;101218.59;5012443;28;45240;-67
2022/07/28 08:21:32;;;;;;;;;4.00;4.00;;;;;26.60;34.59;101211.31;5015877;28;45440;-67
2022/07/28 08:23:58;;;;;;;;;8.33;6.33;;;;;26.92;33.98;101211.81;5019501;28;45442;-67
2022/07/28 08:26:24;;;;;;;;;10.67;6.00;;;;;27.31;33.65;101214.88;5018778;28;45342;-68
2022/07/28 08:28:50;;;;;;;;;7.33;7.33;;;;;27.74;33.07;101217.16;5021830;28;45311;-67
2022/07/28 08:31:19;;;;;;;;;5.00;5.00;;;;;28.12;32.15;101222.06;5018389;28;45986;-68
2022/07/28 08:33:45;;;;;;;;;6.00;6.00;;;;;27.85;31.36;101217.09;5021684;28;45423;-68
2022/07/28 08:36:10;;;;;;;;;10.00;5.33;;;;;28.11;31.33;101209.19;5018473;28;45352;-68
2022/07/28 08:38:36;;;;;;;;;5.00;5.00;;;;;27.86;31.49;101207.63;5013446;28;45256;-66
2022/07/28 08:41:03;;;;;;;;;5.00;5.00;;;;;28.13;31.39;101207.81;5014946;28;45244;-68
2022/07/28 08:43:32;;;;;;;;;5.67;5.67;;;;;28.51;31.78;101212.66;5018829;28;45336;-68
2022/07/28 08:46:00;;;;;;;;;6.00;4.67;;;;;28.57;30.67;101214.44;5004975;28;45447;-68
2022/07/28 08:48:29;;;;;;;;;5.67;5.67;;;;;28.73;31.16;101214.66;5017047;28;45383;-67
2022/07/28 08:50:59;;;;;;;;;5.00;5.00;;;;;28.63;30.62;101216.22;5011054;28;47879;-67
2022/07/28 08:53:25;;;;;;;;;5.00;5.00;;;;;28.39;30.37;101211.91;5011002;28;45568;-67
2022/07/28 08:55:51;;;;;;;;;6.67;5.00;;;;;28.54;30.20;101209.38;5018066;28;45246;-67
2022/07/28 08:58:16;;;;;;;;;7.67;7.00;;;;;28.51;30.54;101211.81;5018822;28;45256;-67
2022/07/28 09:00:42;;;;;;;;;9.67;6.33;;;;;28.54;30.43;101203.78;5018566;28;45244;-69
2022/07/28 09:03:10;;;;;;;;;6.33;6.00;;;;;28.90;31.26;101215.50;5023484;28;45260;-68
2022/07/28 09:05:36;;;;;;;;;4.33;4.33;;;;;29.35;29.94;101193.75;5020782;28;45382;-68
2022/07/28 09:08:02;;;;;;;;;6.33;6.33;;;;;29.79;29.10;101200.13;5018019;28;45401;-67
2022/07/28 09:10:27;;;;;;;;;6.00;4.00;;;;;30.11;29.28;101197.34;5019040;28;47022;-68
2022/07/28 09:12:52;;;;;;;;;5.00;5.00;;;;;30.24;28.70;101198.03;5016038;28;45326;-67
2022/07/28 09:15:18;;;;;;;;;7.33;7.33;;;;;30.07;27.93;101201.81;5019434;28;45476;-68
2022/07/28 09:17:43;;;;;;;;;8.00;6.67;;;;;29.22;28.89;101201.69;5019891;28;45306;-67
2022/07/28 09:20:10;;;;;;;;;5.67;5.67;;;;;29.69;29.40;101199.16;5020791;28;45811;-68
2022/07/28 09:22:53;;;;;;;;;5.00;5.00;;;;;29.82;29.47;101195.91;5018722;28;45563;-68
2022/07/28 09:25:18;;;;;;;;;6.00;5.67;;;;;30.18;28.25;101191.53;5018706;28;45378;-68
2022/07/28 09:27:44;;;;;;;;;1.67;1.67;;;;;30.28;27.38;101196.38;5023589;28;45636;-68
2022/07/28 09:30:10;;;;;;;;;4.67;4.67;;;;;30.03;27.98;101195.03;5021052;28;45389;-68
2022/07/28 09:32:36;;;;;;;;;4.67;4.33;;;;;30.04;28.84;101179.91;5020974;28;45598;-67
2022/07/28 09:35:02;;;;;;;;;6.00;6.00;;;;;29.86;28.25;101185.03;5021698;28;45419;-68
2022/07/28 09:37:28;;;;;;;;;5.00;5.00;;;;;30.03;28.30;101192.22;5031328;28;45556;-68
2022/07/28 09:39:58;;;;;;;;;3.00;3.00;;;;;30.19;27.73;101182.84;5022657;28;45434;-68
2022/07/28 09:42:24;;;;;;;;;5.67;5.00;;;;;30.23;27.35;101183.19;5016667;28;45314;-68
2022/07/28 09:45:07;;;;;;;;;3.00;3.00;;;;;30.07;27.81;101182.19;5022516;28;45292;-68
2022/07/28 09:47:33;;;;;;;;;4.00;4.00;;;;;29.66;27.99;101196.91;5021947;28;45399;-68
2022/07/28 09:50:00;;;;;;;;;4.00;4.00;;;;;30.13;28.18;101188.69;5020295;28;47068;-68
2022/07/28 09:52:37;;;;;;;;;5.00;5.00;;;;;30.08;27.43;101189.50;5020313;28;45173;-68
2022/07/28 09:55:06;;;;;;;;;6.33;4.33;;;;;29.75;28.02;101175.69;5020124;28;45390;-68
2022/07/28 09:57:34;;;;;;;;;3.67;3.67;;;;;30.10;27.30;101172.41;5017275;28;45429;-68
2022/07/28 10:00:01;;;;;;;;;8.67;7.00;;;;;29.91;27.52;101173.88;5020958;28;46380;-68
2022/07/28 10:02:32;;;;;;;;;6.00;6.00;;;;;30.02;28.03;101170.94;5013935;28;45399;-67
2022/07/28 10:04:59;;;;;;;;;5.33;5.33;;;;;30.18;27.48;101174.69;5019419;28;45819;-69
2022/07/28 10:07:27;;;;;;;;;5.00;5.00;;;;;30.51;27.14;101168.81;5016916;28;45379;-68
2022/07/28 10:10:10;;;;;;;;;3.33;3.00;;;;;30.76;25.74;101170.06;5013004;28;46092;-69
2022/07/28 10:12:37;;;;;;;;;8.00;8.00;;;;;31.16;25.03;101173.13;5015391;28;45315;-67
2022/07/28 10:18:05;;;;;;;;;5.33;5.33;;;;;30.98;25.11;101172.75;5007576;28;45370;-67
2022/07/28 10:20:31;;;;;;;;;8.67;8.33;;;;;30.67;26.05;101166.97;5020680;28;46509;-67
2022/07/28 10:23:02;;;;;;;;;5.00;5.00;;;;;31.37;25.53;101160.00;5019734;28;45252;-69
2022/07/28 10:25:31;;;;;;;;;3.67;3.67;;;;;31.79;25.16;101173.88;5021080;28;45961;-67
2022/07/28 10:27:59;;;;;;;;;4.00;4.00;;;;;31.88;24.59;101160.13;5024201;28;45356;-67
2022/07/28 10:30:27;;;;;;;;;3.00;3.00;;;;;32.03;24.12;101165.75;5019152;28;45248;-67
2022/07/28 10:32:55;;;;;;;;;6.00;4.00;;;;;31.77;24.47;101166.88;5018771;28;45836;-67
2022/07/28 10:35:21;;;;;;;;;8.00;6.33;;;;;32.01;24.19;101162.38;5020892;28;45267;-67
2022/07/28 10:38:00;;;;;;;;;7.00;7.00;;;;;32.25;24.21;101157.91;5021183;28;45295;-68
2022/07/28 10:40:31;;;;;;;;;6.33;6.33;;;;;32.53;23.65;101161.22;5020110;28;46462;-67
2022/07/28 10:42:58;;;;;;;;;4.00;4.00;;;;;32.76;23.74;101152.19;5015004;28;45469;-67
2022/07/28 10:45:25;;;;;;;;;5.33;4.67;;;;;33.13;23.64;101149.81;5017769;28;45909;-67
2022/07/28 10:47:51;;;;;;;;;6.33;6.33;;;;;33.18;22.98;101158.22;5023140;28;45416;-68
2022/07/28 10:50:18;;;;;;;;;4.00;4.00;;;;;33.32;23.08;101158.44;5018667;28;45513;-68
2022/07/28 10:52:45;;;;;;;;;4.33;4.33;;;;;33.40;22.93;101154.19;5021454;28;45271;-67
2022/07/28 10:55:11;;;;;;;;;5.00;5.00;;;;;32.20;24.43;101160.72;5019548;28;45173;-67
2022/07/28 10:57:42;;;;;;;;;7.67;7.67;;;;;32.39;24.80;101152.53;5017861;28;45392;-67
2022/07/28 11:00:20;;;;;;;;;3.00;3.00;;;;;31.57;24.28;101151.59;5019741;28;46627;-68
2022/07/28 11:02:47;;;;;;;;;4.00;4.00;;;;;32.15;24.12;101160.69;5017642;28;45330;-68
2022/07/28 11:05:38;;;;;;;;;3.67;3.67;;;;;32.67;23.52;101145.44;5016039;28;45522;-68
2022/07/28 11:08:15;;;;;;;;;2.33;2.33;;;;;32.91;23.40;101149.34;5009975;28;45539;-68
2022/07/28 11:10:46;;;;;;;;;10.25;10.25;;;;;33.14;23.20;101151.50;5008884;28;47000;-68
2022/07/28 11:13:34;;;;;;;;;3.33;3.00;;;;;33.24;22.48;101159.09;5021315;28;45359;-67
2022/07/28 11:16:23;;;;;;;;;3.00;3.00;;;;;32.76;22.63;101155.00;5016398;28;45449;-67
2022/07/28 11:19:18;;;;;;;;;3.33;3.00;;;;;33.02;23.24;101152.97;5021032;28;45421;-67
2022/07/28 11:22:20;;;;;;;;;4.00;2.67;;;;;33.66;22.11;101152.06;5009442;28;45359;-67
2022/07/28 11:24:59;;;;;;;;;13.00;10.33;;;;;34.45;21.24;101153.69;5007618;28;45442;-68
2022/07/28 11:27:45;;;;;;;;;3.00;3.00;;;;;34.76;20.60;101157.91;5030563;28;45461;-68
2022/07/28 11:30:35;;;;;;;;;1.00;1.00;;;;;34.78;20.19;101151.97;5022683;28;45550;-67
2022/07/28 11:33:05;;;;;;;;;2.67;2.33;;;;;33.85;21.08;101151.09;5019809;28;46962;-68
2022/07/28 11:35:52;;;;;;;;;2.67;2.33;;;;;34.84;21.52;101140.31;5010070;28;45846;-68